sensor_id;sensor_type;location;lat;lon;timestamp;pressure;altitude;pressure_sealevel;temperature;humidity
75775;BME280;64505;51.458;7.556;2023-07-31T00:00:29;99272.28;;;17.36;88.52
75775;BME280;64505;51.458;7.556;2023-07-31T00:02:31;99267.47;;;17.33;88.17
75775;BME280;64505;51.458;7.556;2023-07-31T00:04:32;99275.28;;;17.25;88.99
75775;BME280;64505;51.458;7.556;2023-07-31T00:06:34;99265.88;;;17.32;89.23
75775;BME280;64505;51.458;7.556;2023-07-31T00:08:35;99259.66;;;17.42;88.24
75775;BME280;64505;51.458;7.556;2023-07-31T00:10:37;99246.06;;;17.38;88.77
75775;BME280;64505;51.458;7.556;2023-07-31T00:12:40;99262.03;;;17.48;86.69
75775;BME280;64505;51.458;7.556;2023-07-31T00:14:42;99266.38;;;17.39;88.79
75775;BME280;64505;51.458;7.556;2023-07-31T00:16:43;99249.56;;;17.34;89.62
75775;BME280;64505;51.458;7.556;2023-07-31T00:18:45;99256.47;;;17.40;88.96
75775;BME280;64505;51.458;7.556;2023-07-31T00:20:46;99259.16;;;17.40;88.78
75775;BME280;64505;51.458;7.556;2023-07-31T00:22:48;99245.00;;;17.39;88.81
75775;BME280;64505;51.458;7.556;2023-07-31T00:24:49;99244.94;;;17.44;87.70
75775;BME280;64505;51.458;7.556;2023-07-31T00:26:51;99243.25;;;17.19;89.98
75775;BME280;64505;51.458;7.556;2023-07-31T00:28:52;99247.97;;;17.33;88.71
75775;BME280;64505;51.458;7.556;2023-07-31T00:30:54;99252.47;;;17.37;89.23
75775;BME280;64505;51.458;7.556;2023-07-31T00:32:55;99245.75;;;17.45;88.60
75775;BME280;64505;51.458;7.556;2023-07-31T00:34:57;99250.34;;;17.39;88.35
75775;BME280;64505;51.458;7.556;2023-07-31T00:36:58;99244.78;;;17.31;89.97
75775;BME280;64505;51.458;7.556;2023-07-31T00:39:00;99244.31;;;17.18;89.87
75775;BME280;64505;51.458;7.556;2023-07-31T00:41:01;99246.63;;;17.30;90.08
75775;BME280;64505;51.458;7.556;2023-07-31T00:43:03;99235.69;;;17.32;88.83
75775;BME280;64505;51.458;7.556;2023-07-31T00:45:05;99246.13;;;17.28;89.03
75775;BME280;64505;51.458;7.556;2023-07-31T00:47:06;99245.59;;;17.26;89.20
75775;BME280;64505;51.458;7.556;2023-07-31T00:49:08;99236.16;;;17.39;88.21
75775;BME280;64505;51.458;7.556;2023-07-31T00:51:10;99244.50;;;17.32;88.67
75775;BME280;64505;51.458;7.556;2023-07-31T00:53:13;99249.72;;;17.47;87.68
75775;BME280;64505;51.458;7.556;2023-07-31T00:55:14;99244.47;;;17.37;88.67
75775;BME280;64505;51.458;7.556;2023-07-31T00:57:16;99243.66;;;17.37;89.82
75775;BME280;64505;51.458;7.556;2023-07-31T00:59:17;99244.22;;;17.34;89.36
75775;BME280;64505;51.458;7.556;2023-07-31T01:01:19;99245.00;;;17.39;89.23
75775;BME280;64505;51.458;7.556;2023-07-31T01:03:21;99242.81;;;17.41;88.17
75775;BME280;64505;51.458;7.556;2023-07-31T01:05:36;99249.53;;;17.39;88.64
75775;BME280;64505;51.458;7.556;2023-07-31T01:07:53;99241.28;;;17.35;88.47
75775;BME280;64505;51.458;7.556;2023-07-31T01:10:05;99236.16;;;17.39;87.85
75775;BME280;64505;51.458;7.556;2023-07-31T01:12:12;99242.16;;;17.20;89.53
75775;BME280;64505;51.458;7.556;2023-07-31T01:14:15;99237.81;;;17.30;88.99
75775;BME280;64505;51.458;7.556;2023-07-31T01:16:16;99236.16;;;17.39;87.86
75775;BME280;64505;51.458;7.556;2023-07-31T01:18:18;99238.31;;;17.37;87.96
75775;BME280;64505;51.458;7.556;2023-07-31T01:20:24;99237.25;;;17.38;88.53
75775;BME280;64505;51.458;7.556;2023-07-31T01:27:02;99234.88;;;17.31;89.28
75775;BME280;64505;51.458;7.556;2023-07-31T01:29:38;99234.78;;;17.46;87.41
75775;BME280;64505;51.458;7.556;2023-07-31T01:31:41;99233.00;;;17.32;87.82
75775;BME280;64505;51.458;7.556;2023-07-31T01:33:45;99228.75;;;17.31;89.34
75775;BME280;64505;51.458;7.556;2023-07-31T01:35:48;99228.16;;;17.39;88.34
75775;BME280;64505;51.458;7.556;2023-07-31T01:37:52;99233.44;;;17.44;87.13
75775;BME280;64505;51.458;7.556;2023-07-31T01:39:54;99239.66;;;17.39;87.44
75775;BME280;64505;51.458;7.556;2023-07-31T01:41:55;99242.38;;;17.29;87.95
75775;BME280;64505;51.458;7.556;2023-07-31T01:43:57;99246.13;;;17.28;88.62
75775;BME280;64505;51.458;7.556;2023-07-31T01:45:58;99238.91;;;17.29;87.82
75775;BME280;64505;51.458;7.556;2023-07-31T01:48:00;99245.19;;;17.48;85.63
75775;BME280;64505;51.458;7.556;2023-07-31T01:50:01;99236.41;;;17.42;86.90
75775;BME280;64505;51.458;7.556;2023-07-31T01:52:03;99236.91;;;17.44;86.47
75775;BME280;64505;51.458;7.556;2023-07-31T01:54:05;99235.41;;;17.33;87.70
75775;BME280;64505;51.458;7.556;2023-07-31T01:56:06;99226.31;;;17.29;87.44
75775;BME280;64505;51.458;7.556;2023-07-31T01:58:08;99226.47;;;17.48;86.68
75775;BME280;64505;51.458;7.556;2023-07-31T02:00:10;99234.84;;;17.36;86.94
75775;BME280;64505;51.458;7.556;2023-07-31T02:02:11;99232.44;;;17.35;86.71
75775;BME280;64505;51.458;7.556;2023-07-31T02:04:13;99220.97;;;17.34;87.45
75775;BME280;64505;51.458;7.556;2023-07-31T02:06:14;99233.53;;;17.34;87.87
75775;BME280;64505;51.458;7.556;2023-07-31T02:08:16;99235.78;;;17.16;87.96
75775;BME280;64505;51.458;7.556;2023-07-31T02:10:17;99240.06;;;17.17;87.46
75775;BME280;64505;51.458;7.556;2023-07-31T02:12:19;99234.34;;;17.29;87.31
75775;BME280;64505;51.458;7.556;2023-07-31T02:14:20;99230.91;;;17.29;88.22
75775;BME280;64505;51.458;7.556;2023-07-31T02:16:22;99221.53;;;17.26;86.07
75775;BME280;64505;51.458;7.556;2023-07-31T02:18:23;99223.47;;;17.20;86.08
75775;BME280;64505;51.458;7.556;2023-07-31T02:20:25;99230.03;;;17.38;86.60
75775;BME280;64505;51.458;7.556;2023-07-31T02:22:27;99221.78;;;17.30;86.57
75775;BME280;64505;51.458;7.556;2023-07-31T02:24:28;99216.00;;;17.17;87.58
75775;BME280;64505;51.458;7.556;2023-07-31T02:26:29;99217.41;;;17.10;86.56
75775;BME280;64505;51.458;7.556;2023-07-31T02:28:31;99225.34;;;17.20;86.49
75775;BME280;64505;51.458;7.556;2023-07-31T02:30:32;99216.28;;;17.16;86.74
75775;BME280;64505;51.458;7.556;2023-07-31T02:32:34;99217.00;;;17.27;86.97
75775;BME280;64505;51.458;7.556;2023-07-31T02:34:36;99219.16;;;17.25;86.29
75775;BME280;64505;51.458;7.556;2023-07-31T02:36:37;99213.53;;;17.26;85.66
75775;BME280;64505;51.458;7.556;2023-07-31T02:38:39;99227.09;;;17.35;85.89
75775;BME280;64505;51.458;7.556;2023-07-31T02:40:40;99209.03;;;17.21;86.47
75775;BME280;64505;51.458;7.556;2023-07-31T02:42:42;99213.59;;;17.16;85.75
75775;BME280;64505;51.458;7.556;2023-07-31T02:44:44;99219.75;;;17.16;85.68
75775;BME280;64505;51.458;7.556;2023-07-31T02:46:45;99225.13;;;17.11;86.67
75775;BME280;64505;51.458;7.556;2023-07-31T02:48:47;99214.09;;;17.23;86.25
75775;BME280;64505;51.458;7.556;2023-07-31T02:50:48;99213.81;;;17.25;84.72
75775;BME280;64505;51.458;7.556;2023-07-31T02:52:49;99215.41;;;17.26;85.58
75775;BME280;64505;51.458;7.556;2023-07-31T02:54:51;99206.06;;;17.28;84.82
75775;BME280;64505;51.458;7.556;2023-07-31T02:56:53;99219.97;;;17.25;85.33
75775;BME280;64505;51.458;7.556;2023-07-31T02:58:54;99208.56;;;17.09;85.34
75775;BME280;64505;51.458;7.556;2023-07-31T03:00:58;99211.72;;;17.16;84.77
75775;BME280;64505;51.458;7.556;2023-07-31T03:02:59;99204.53;;;17.17;84.36
75775;BME280;64505;51.458;7.556;2023-07-31T03:05:01;99211.41;;;17.23;85.47
75775;BME280;64505;51.458;7.556;2023-07-31T03:07:03;99211.72;;;17.16;84.84
75775;BME280;64505;51.458;7.556;2023-07-31T03:09:04;99199.44;;;17.15;85.74
75775;BME280;64505;51.458;7.556;2023-07-31T03:11:05;99205.56;;;17.21;85.68
75775;BME280;64505;51.458;7.556;2023-07-31T03:13:07;99205.28;;;17.22;84.63
75775;BME280;64505;51.458;7.556;2023-07-31T03:15:09;99202.69;;;17.12;85.13
75775;BME280;64505;51.458;7.556;2023-07-31T03:17:11;99197.22;;;17.28;85.19
75775;BME280;64505;51.458;7.556;2023-07-31T03:19:13;99199.97;;;17.17;84.52
75775;BME280;64505;51.458;7.556;2023-07-31T03:21:14;99195.63;;;17.27;84.54
75775;BME280;64505;51.458;7.556;2023-07-31T03:23:16;99200.50;;;17.19;85.83
75775;BME280;64505;51.458;7.556;2023-07-31T03:25:17;99193.84;;;17.17;84.25
75775;BME280;64505;51.458;7.556;2023-07-31T03:27:19;99194.97;;;17.11;84.24
75775;BME280;64505;51.458;7.556;2023-07-31T03:29:20;99193.78;;;17.22;83.68
75775;BME280;64505;51.458;7.556;2023-07-31T03:31:25;99189.28;;;17.17;83.71
75775;BME280;64505;51.458;7.556;2023-07-31T03:33:26;99184.75;;;17.18;83.87
75775;BME280;64505;51.458;7.556;2023-07-31T03:35:28;99197.25;;;17.22;83.99
75775;BME280;64505;51.458;7.556;2023-07-31T03:37:29;99192.00;;;17.12;84.39
75775;BME280;64505;51.458;7.556;2023-07-31T03:39:31;99189.34;;;17.07;83.72
75775;BME280;64505;51.458;7.556;2023-07-31T03:41:32;99187.44;;;17.18;83.83
75775;BME280;64505;51.458;7.556;2023-07-31T03:43:34;99182.84;;;17.18;83.59
75775;BME280;64505;51.458;7.556;2023-07-31T03:45:35;99193.31;;;17.15;83.46
75775;BME280;64505;51.458;7.556;2023-07-31T03:47:37;99187.34;;;17.28;83.25
75775;BME280;64505;51.458;7.556;2023-07-31T03:49:38;99184.66;;;17.28;83.30
75775;BME280;64505;51.458;7.556;2023-07-31T03:51:40;99193.25;;;17.25;82.64
75775;BME280;64505;51.458;7.556;2023-07-31T03:53:43;99192.69;;;17.28;83.66
75775;BME280;64505;51.458;7.556;2023-07-31T03:55:45;99190.03;;;17.23;83.48
75775;BME280;64505;51.458;7.556;2023-07-31T03:57:46;99190.03;;;17.23;83.47
75775;BME280;64505;51.458;7.556;2023-07-31T03:59:48;99196.19;;;17.23;83.32
75775;BME280;64505;51.458;7.556;2023-07-31T04:01:49;99186.88;;;17.21;83.80
75775;BME280;64505;51.458;7.556;2023-07-31T04:03:51;99206.88;;;17.23;83.49
75775;BME280;64505;51.458;7.556;2023-07-31T04:05:54;99191.59;;;17.29;83.24
75775;BME280;64505;51.458;7.556;2023-07-31T04:07:55;99182.81;;;17.29;83.11
75775;BME280;64505;51.458;7.556;2023-07-31T04:09:57;99179.91;;;17.20;83.20
75775;BME280;64505;51.458;7.556;2023-07-31T04:11:59;99183.31;;;17.31;83.04
75775;BME280;64505;51.458;7.556;2023-07-31T04:14:00;99184.03;;;17.41;82.52
75775;BME280;64505;51.458;7.556;2023-07-31T04:16:02;99179.47;;;17.42;82.63
75775;BME280;64505;51.458;7.556;2023-07-31T04:18:04;99185.75;;;17.27;82.90
75775;BME280;64505;51.458;7.556;2023-07-31T04:20:06;99180.53;;;17.41;82.07
75775;BME280;64505;51.458;7.556;2023-07-31T04:22:08;99185.56;;;17.47;81.70
75775;BME280;64505;51.458;7.556;2023-07-31T04:24:09;99183.66;;;17.58;81.33
75775;BME280;64505;51.458;7.556;2023-07-31T04:26:11;99176.72;;;17.57;81.91
75775;BME280;64505;51.458;7.556;2023-07-31T04:28:12;99177.44;;;17.62;81.34
75775;BME280;64505;51.458;7.556;2023-07-31T04:30:14;99167.06;;;17.56;82.86
75775;BME280;64505;51.458;7.556;2023-07-31T04:32:15;99174.28;;;17.55;83.05
75775;BME280;64505;51.458;7.556;2023-07-31T04:34:18;99181.00;;;17.53;82.18
75775;BME280;64505;51.458;7.556;2023-07-31T04:36:19;99178.56;;;17.61;81.64
75775;BME280;64505;51.458;7.556;2023-07-31T04:38:21;99177.69;;;17.66;81.92
75775;BME280;64505;51.458;7.556;2023-07-31T04:40:22;99175.00;;;17.66;82.03
75775;BME280;64505;51.458;7.556;2023-07-31T04:42:24;99176.88;;;17.65;82.28
75775;BME280;64505;51.458;7.556;2023-07-31T04:44:26;99188.72;;;17.59;83.37
75775;BME280;64505;51.458;7.556;2023-07-31T04:46:27;99171.78;;;17.69;82.75
75775;BME280;64505;51.458;7.556;2023-07-31T04:48:29;99180.81;;;17.73;82.06
75775;BME280;64505;51.458;7.556;2023-07-31T04:50:30;99178.44;;;17.72;83.28
75775;BME280;64505;51.458;7.556;2023-07-31T04:52:32;99173.59;;;17.74;83.42
75775;BME280;64505;51.458;7.556;2023-07-31T04:54:33;99178.38;;;17.77;82.88
75775;BME280;64505;51.458;7.556;2023-07-31T04:56:35;99176.81;;;17.76;83.76
75775;BME280;64505;51.458;7.556;2023-07-31T04:58:36;99168.22;;;17.79;82.50
75775;BME280;64505;51.458;7.556;2023-07-31T05:00:38;99171.94;;;17.83;81.51
75775;BME280;64505;51.458;7.556;2023-07-31T05:02:39;99168.22;;;17.79;81.37
75775;BME280;64505;51.458;7.556;2023-07-31T05:04:41;99159.84;;;17.61;82.73
75775;BME280;64505;51.458;7.556;2023-07-31T05:06:42;99161.38;;;17.67;83.33
75775;BME280;64505;51.458;7.556;2023-07-31T05:08:44;99160.22;;;17.74;83.16
75775;BME280;64505;51.458;7.556;2023-07-31T05:10:45;99159.63;;;17.82;83.51
75775;BME280;64505;51.458;7.556;2023-07-31T05:12:47;99150.22;;;17.84;83.70
75775;BME280;64505;51.458;7.556;2023-07-31T05:14:48;99151.25;;;17.88;82.31
75775;BME280;64505;51.458;7.556;2023-07-31T05:16:50;99150.69;;;17.91;82.58
75775;BME280;64505;51.458;7.556;2023-07-31T05:18:51;99146.91;;;17.97;82.77
75775;BME280;64505;51.458;7.556;2023-07-31T05:20:53;99162.16;;;17.97;82.63
75775;BME280;64505;51.458;7.556;2023-07-31T05:22:54;99158.63;;;18.01;82.61
75775;BME280;64505;51.458;7.556;2023-07-31T05:24:56;99145.22;;;17.78;83.04
75775;BME280;64505;51.458;7.556;2023-07-31T05:26:57;99150.91;;;17.95;82.52
75775;BME280;64505;51.458;7.556;2023-07-31T05:28:59;99136.53;;;18.14;81.92
75775;BME280;64505;51.458;7.556;2023-07-31T05:31:01;99137.69;;;18.08;82.31
75775;BME280;64505;51.458;7.556;2023-07-31T05:33:03;99142.00;;;18.04;82.37
75775;BME280;64505;51.458;7.556;2023-07-31T05:35:05;99133.97;;;18.04;82.54
75775;BME280;64505;51.458;7.556;2023-07-31T05:37:06;99134.81;;;18.24;81.66
75775;BME280;64505;51.458;7.556;2023-07-31T05:39:08;99140.06;;;18.34;82.02
75775;BME280;64505;51.458;7.556;2023-07-31T05:41:11;99133.44;;;18.26;81.66
75775;BME280;64505;51.458;7.556;2023-07-31T05:43:14;99126.22;;;18.45;82.51
75775;BME280;64505;51.458;7.556;2023-07-31T05:45:16;99127.78;;;18.28;82.75
75775;BME280;64505;51.458;7.556;2023-07-31T05:47:17;99133.19;;;18.46;82.37
75775;BME280;64505;51.458;7.556;2023-07-31T05:49:19;99133.19;;;18.46;81.74
75775;BME280;64505;51.458;7.556;2023-07-31T05:51:20;99121.66;;;18.46;82.30
75775;BME280;64505;51.458;7.556;2023-07-31T05:53:22;99124.66;;;18.44;82.26
75775;BME280;64505;51.458;7.556;2023-07-31T05:55:24;99121.00;;;18.35;81.12
75775;BME280;64505;51.458;7.556;2023-07-31T05:57:28;99115.97;;;18.34;81.55
75775;BME280;64505;51.458;7.556;2023-07-31T05:59:29;99112.47;;;18.33;81.43
75775;BME280;64505;51.458;7.556;2023-07-31T06:01:34;99105.72;;;18.17;82.73
75775;BME280;64505;51.458;7.556;2023-07-31T06:03:36;99103.94;;;18.31;82.42
75775;BME280;64505;51.458;7.556;2023-07-31T06:05:37;99107.28;;;18.23;81.55
75775;BME280;64505;51.458;7.556;2023-07-31T06:07:39;99100.72;;;18.53;80.93
75775;BME280;64505;51.458;7.556;2023-07-31T06:09:40;99097.66;;;18.41;81.85
75775;BME280;64505;51.458;7.556;2023-07-31T06:11:42;99102.78;;;18.37;82.68
75775;BME280;64505;51.458;7.556;2023-07-31T06:13:43;99101.41;;;18.40;82.96
75775;BME280;64505;51.458;7.556;2023-07-31T06:15:46;99098.38;;;18.46;81.71
75775;BME280;64505;51.458;7.556;2023-07-31T06:17:47;99101.56;;;18.30;81.42
75775;BME280;64505;51.458;7.556;2023-07-31T06:19:49;99108.28;;;18.46;82.10
75775;BME280;64505;51.458;7.556;2023-07-31T06:21:51;99090.94;;;18.43;82.45
75775;BME280;64505;51.458;7.556;2023-07-31T06:23:52;99083.16;;;18.42;82.33
75775;BME280;64505;51.458;7.556;2023-07-31T06:25:54;99093.66;;;18.38;81.56
75775;BME280;64505;51.458;7.556;2023-07-31T06:27:55;99093.38;;;18.40;82.01
75775;BME280;64505;51.458;7.556;2023-07-31T06:29:57;99090.56;;;18.50;80.87
75775;BME280;64505;51.458;7.556;2023-07-31T06:31:58;99100.88;;;18.38;81.62
75775;BME280;64505;51.458;7.556;2023-07-31T06:34:04;99091.19;;;18.42;81.30
75775;BME280;64505;51.458;7.556;2023-07-31T06:36:05;99095.75;;;18.41;81.42
75775;BME280;64505;51.458;7.556;2023-07-31T06:38:07;99084.56;;;18.39;81.42
75775;BME280;64505;51.458;7.556;2023-07-31T06:40:09;99080.94;;;18.49;81.21
75775;BME280;64505;51.458;7.556;2023-07-31T06:42:11;99081.63;;;18.59;80.51
75775;BME280;64505;51.458;7.556;2023-07-31T06:44:12;99088.41;;;18.71;80.11
75775;BME280;64505;51.458;7.556;2023-07-31T06:46:14;99082.72;;;18.58;81.27
75775;BME280;64505;51.458;7.556;2023-07-31T06:48:15;99082.13;;;18.61;81.40
75775;BME280;64505;51.458;7.556;2023-07-31T06:50:17;99077.91;;;18.74;80.61
75775;BME280;64505;51.458;7.556;2023-07-31T06:52:18;99081.31;;;18.80;79.33
75775;BME280;64505;51.458;7.556;2023-07-31T06:54:20;99076.94;;;18.70;79.77
75775;BME280;64505;51.458;7.556;2023-07-31T06:56:22;99074.78;;;18.86;79.39
75775;BME280;64505;51.458;7.556;2023-07-31T06:58:23;99079.63;;;19.02;80.26
75775;BME280;64505;51.458;7.556;2023-07-31T07:00:25;99083.47;;;18.96;80.78
75775;BME280;64505;51.458;7.556;2023-07-31T07:02:26;99087.28;;;19.09;79.79
75775;BME280;64505;51.458;7.556;2023-07-31T07:04:28;99084.78;;;18.99;80.37
75775;BME280;64505;51.458;7.556;2023-07-31T07:06:29;99079.56;;;18.89;79.77
75775;BME280;64505;51.458;7.556;2023-07-31T07:08:31;99081.50;;;19.02;80.08
75775;BME280;64505;51.458;7.556;2023-07-31T07:10:33;99084.19;;;19.02;79.87
75775;BME280;64505;51.458;7.556;2023-07-31T07:12:35;99083.41;;;19.01;80.18
75775;BME280;64505;51.458;7.556;2023-07-31T07:14:36;99081.50;;;19.02;81.26
75775;BME280;64505;51.458;7.556;2023-07-31T07:16:38;99081.16;;;18.90;80.25
75775;BME280;64505;51.458;7.556;2023-07-31T07:18:43;99076.53;;;18.95;80.63
75775;BME280;64505;51.458;7.556;2023-07-31T07:21:03;99085.09;;;18.79;80.84
75775;BME280;64505;51.458;7.556;2023-07-31T07:23:04;99073.13;;;18.90;80.24
75775;BME280;64505;51.458;7.556;2023-07-31T07:25:06;99081.13;;;18.76;79.93
75775;BME280;64505;51.458;7.556;2023-07-31T07:27:08;99080.81;;;18.78;80.66
75775;BME280;64505;51.458;7.556;2023-07-31T07:29:10;99083.34;;;18.88;80.26
75775;BME280;64505;51.458;7.556;2023-07-31T07:31:12;99087.34;;;18.72;80.77
75775;BME280;64505;51.458;7.556;2023-07-31T07:33:14;99079.94;;;18.82;79.89
75775;BME280;64505;51.458;7.556;2023-07-31T07:35:15;99087.75;;;18.79;81.17
75775;BME280;64505;51.458;7.556;2023-07-31T07:37:17;99077.25;;;18.82;81.01
75775;BME280;64505;51.458;7.556;2023-07-31T07:39:19;99086.69;;;18.80;80.56
75775;BME280;64505;51.458;7.556;2023-07-31T07:41:21;99083.47;;;18.78;81.56
75775;BME280;64505;51.458;7.556;2023-07-31T07:43:23;99086.09;;;18.83;81.31
75775;BME280;64505;51.458;7.556;2023-07-31T07:45:24;99086.59;;;18.85;81.70
75775;BME280;64505;51.458;7.556;2023-07-31T07:47:26;99076.22;;;18.97;81.47
75775;BME280;64505;51.458;7.556;2023-07-31T07:49:29;99087.56;;;19.07;81.46
75775;BME280;64505;51.458;7.556;2023-07-31T07:51:31;99078.94;;;18.78;81.88
75775;BME280;64505;51.458;7.556;2023-07-31T07:53:33;99078.84;;;19.02;81.78
75775;BME280;64505;51.458;7.556;2023-07-31T07:55:35;99072.84;;;18.91;81.77
75775;BME280;64505;51.458;7.556;2023-07-31T07:57:37;99073.88;;;19.09;81.97
75775;BME280;64505;51.458;7.556;2023-07-31T07:59:40;99061.91;;;18.88;82.16
75775;BME280;64505;51.458;7.556;2023-07-31T08:01:42;99071.78;;;18.74;83.92
75775;BME280;64505;51.458;7.556;2023-07-31T08:03:45;99065.63;;;18.54;82.65
75775;BME280;64505;51.458;7.556;2023-07-31T08:05:47;99066.75;;;18.86;82.75
75775;BME280;64505;51.458;7.556;2023-07-31T08:07:49;99080.25;;;19.13;81.75
75775;BME280;64505;51.458;7.556;2023-07-31T08:09:52;99079.31;;;19.04;82.45
75775;BME280;64505;51.458;7.556;2023-07-31T08:11:53;99071.31;;;19.17;81.56
75775;BME280;64505;51.458;7.556;2023-07-31T08:13:55;99064.19;;;19.13;81.96
75775;BME280;64505;51.458;7.556;2023-07-31T08:15:57;99063.84;;;19.01;81.95
75775;BME280;64505;51.458;7.556;2023-07-31T08:17:58;99064.63;;;19.01;81.49
75775;BME280;64505;51.458;7.556;2023-07-31T08:20:00;99053.16;;;19.28;82.42
75775;BME280;64505;51.458;7.556;2023-07-31T08:22:01;99051.44;;;19.51;81.57
75775;BME280;64505;51.458;7.556;2023-07-31T08:24:03;99052.16;;;19.56;80.07
75775;BME280;64505;51.458;7.556;2023-07-31T08:26:04;99052.00;;;19.34;80.10
75775;BME280;64505;51.458;7.556;2023-07-31T08:28:06;99050.59;;;19.23;80.26
75775;BME280;64505;51.458;7.556;2023-07-31T08:30:32;99054.53;;;19.44;80.61
75775;BME280;64505;51.458;7.556;2023-07-31T08:32:37;99052.28;;;19.33;80.95
75775;BME280;64505;51.458;7.556;2023-07-31T08:34:39;99059.66;;;19.27;80.28
75775;BME280;64505;51.458;7.556;2023-07-31T08:36:40;99049.19;;;19.12;81.24
75775;BME280;64505;51.458;7.556;2023-07-31T08:38:42;99048.13;;;19.27;80.71
75775;BME280;64505;51.458;7.556;2023-07-31T08:40:43;99048.13;;;19.40;80.92
75775;BME280;64505;51.458;7.556;2023-07-31T08:42:46;99041.78;;;19.36;81.69
75775;BME280;64505;51.458;7.556;2023-07-31T08:44:48;99044.09;;;19.43;80.71
75775;BME280;64505;51.458;7.556;2023-07-31T08:46:51;99043.00;;;19.44;80.95
75775;BME280;64505;51.458;7.556;2023-07-31T08:48:54;99042.94;;;19.16;81.80
75775;BME280;64505;51.458;7.556;2023-07-31T08:50:57;99036.31;;;19.28;81.67
75775;BME280;64505;51.458;7.556;2023-07-31T08:52:58;99047.09;;;19.09;81.66
75775;BME280;64505;51.458;7.556;2023-07-31T08:55:00;99038.97;;;19.60;80.21
75775;BME280;64505;51.458;7.556;2023-07-31T08:57:01;99031.88;;;19.50;80.49
75775;BME280;64505;51.458;7.556;2023-07-31T08:59:04;99036.69;;;19.67;80.53
75775;BME280;64505;51.458;7.556;2023-07-31T09:01:07;99038.44;;;19.58;80.02
75775;BME280;64505;51.458;7.556;2023-07-31T09:03:11;99050.34;;;19.38;81.26
75775;BME280;64505;51.458;7.556;2023-07-31T09:05:16;99046.88;;;19.65;81.02
75775;BME280;64505;51.458;7.556;2023-07-31T09:07:18;99045.72;;;19.71;80.63
75775;BME280;64505;51.458;7.556;2023-07-31T09:09:20;99042.31;;;19.79;79.60
75775;BME280;64505;51.458;7.556;2023-07-31T09:11:23;99039.94;;;19.50;80.37
75775;BME280;64505;51.458;7.556;2023-07-31T09:13:28;99047.69;;;19.79;79.27
75775;BME280;64505;51.458;7.556;2023-07-31T09:15:30;99045.53;;;19.68;80.28
75775;BME280;64505;51.458;7.556;2023-07-31T09:17:38;99051.38;;;19.70;79.78
75775;BME280;64505;51.458;7.556;2023-07-31T09:19:40;99045.22;;;19.55;79.60
75775;BME280;64505;51.458;7.556;2023-07-31T09:21:48;99049.56;;;19.65;80.37
75775;BME280;64505;51.458;7.556;2023-07-31T09:23:50;99039.31;;;19.53;80.57
75775;BME280;64505;51.458;7.556;2023-07-31T09:25:55;99042.53;;;19.69;79.75
75775;BME280;64505;51.458;7.556;2023-07-31T09:28:07;99037.94;;;19.83;79.70
75775;BME280;64505;51.458;7.556;2023-07-31T09:30:11;99044.88;;;19.43;79.33
75775;BME280;64505;51.458;7.556;2023-07-31T09:32:16;99032.28;;;19.44;79.67
75775;BME280;64505;51.458;7.556;2023-07-31T09:34:19;99039.34;;;19.67;79.69
75775;BME280;64505;51.458;7.556;2023-07-31T09:36:23;99043.41;;;19.64;79.71
75775;BME280;64505;51.458;7.556;2023-07-31T09:38:25;99040.22;;;19.76;79.85
75775;BME280;64505;51.458;7.556;2023-07-31T09:40:28;99045.00;;;19.52;79.57
75775;BME280;64505;51.458;7.556;2023-07-31T09:42:30;99041.31;;;19.48;80.47
75775;BME280;64505;51.458;7.556;2023-07-31T09:44:40;99038.38;;;19.63;80.68
75775;BME280;64505;51.458;7.556;2023-07-31T09:46:42;99041.22;;;19.80;78.17
75775;BME280;64505;51.458;7.556;2023-07-31T09:48:45;99033.28;;;19.75;78.93
75775;BME280;64505;51.458;7.556;2023-07-31T09:50:48;99033.56;;;19.87;79.86
75775;BME280;64505;51.458;7.556;2023-07-31T09:52:51;99035.97;;;19.89;78.74
75775;BME280;64505;51.458;7.556;2023-07-31T09:54:53;99037.63;;;19.98;78.81
75775;BME280;64505;51.458;7.556;2023-07-31T09:56:56;99030.31;;;19.77;81.14
75775;BME280;64505;51.458;7.556;2023-07-31T09:58:58;99026.63;;;20.00;78.41
75775;BME280;64505;51.458;7.556;2023-07-31T10:01:01;99030.47;;;20.07;78.87
75775;BME280;64505;51.458;7.556;2023-07-31T10:03:08;99025.53;;;19.87;78.86
75775;BME280;64505;51.458;7.556;2023-07-31T10:05:13;99022.13;;;19.95;79.68
75775;BME280;64505;51.458;7.556;2023-07-31T10:07:17;99019.56;;;20.04;80.00
75775;BME280;64505;51.458;7.556;2023-07-31T10:09:21;99019.13;;;20.10;79.29
75775;BME280;64505;51.458;7.556;2023-07-31T10:11:24;99025.13;;;19.94;79.38
75775;BME280;64505;51.458;7.556;2023-07-31T10:13:30;99018.75;;;20.03;78.69
75775;BME280;64505;51.458;7.556;2023-07-31T10:15:31;99025.25;;;19.89;80.22
75775;BME280;64505;51.458;7.556;2023-07-31T10:17:35;99019.13;;;19.97;79.66
75775;BME280;64505;51.458;7.556;2023-07-31T10:19:38;99018.28;;;20.37;78.35
75775;BME280;64505;51.458;7.556;2023-07-31T10:21:42;99014.41;;;19.80;80.22
75775;BME280;64505;51.458;7.556;2023-07-31T10:23:44;99013.97;;;20.14;79.66
75775;BME280;64505;51.458;7.556;2023-07-31T10:25:46;99020.00;;;20.20;79.30
75775;BME280;64505;51.458;7.556;2023-07-31T10:27:49;99015.31;;;20.39;78.82
75775;BME280;64505;51.458;7.556;2023-07-31T10:29:52;99009.44;;;20.37;77.87
75775;BME280;64505;51.458;7.556;2023-07-31T10:31:56;99013.44;;;20.39;78.01
75775;BME280;64505;51.458;7.556;2023-07-31T10:33:59;99006.69;;;20.28;77.86
75775;BME280;64505;51.458;7.556;2023-07-31T10:36:17;99003.72;;;20.96;78.39
75775;BME280;64505;51.458;7.556;2023-07-31T10:38:19;99014.03;;;20.81;77.67
75775;BME280;64505;51.458;7.556;2023-07-31T10:40:26;99010.19;;;20.95;75.84
75775;BME280;64505;51.458;7.556;2023-07-31T10:44:36;99007.00;;;20.93;76.60
75775;BME280;64505;51.458;7.556;2023-07-31T10:46:37;99017.06;;;21.80;74.49
75775;BME280;64505;51.458;7.556;2023-07-31T10:48:40;99010.75;;;21.37;75.79
75775;BME280;64505;51.458;7.556;2023-07-31T10:50:49;99009.16;;;21.36;76.44
75775;BME280;64505;51.458;7.556;2023-07-31T10:52:53;99011.38;;;21.42;76.06
75775;BME280;64505;51.458;7.556;2023-07-31T10:55:31;99008.47;;;21.22;75.30